Oakton, Kentucky
Current Conditions -  °F | °C
As of 7:55 AM on Friday 24 Oct 2014 (Local Time) from KUCY Reporting Station
Overcast Overcast  
Wind Chill: 43°   Ceiling: 2600
Heat Index: 43°   Visibility: 7mi
Dew Point: 43°   Wind: 3mph
Humidity: 100%   Direction: 150°SSE
Pressure: 30.13"   Gusts: NA
Location:  36.6807°N, 88.9572°W
Report Text: KUCY 241255Z AUTO 15003KT 7SM OVC026 06/06 A3013 RMK
Loading
Personal Weather Stations






























Interactive Weather Map
Tropical Storm Tracking
New forecast layout! Learn more

10-Day Weather Forecast

Advertisements
Track Severe Weather on mobile